North Myrtle Beach, SC

1:32 AM EDT on September 29, 2016 (GMT -0400)
APRSWXNET | | Change Station

Elev 9 ft 33.83 °N, 78.67 °W | Updated 37 minutes ago

Partly Cloudy
Partly Cloudy
80 °F
Feels Like 85 °F
N
4
Wind Variable Wind from SSE
Gusts 9.0 mph

Today
High -- | Low -- °F
--% Chance of Precip.
Yesterday
High -- | Low -- °F
Precip. -- in
Pressure 29.97 in
Visibility 10.0 miles
Clouds Few 2200 ft
Heat Index 85 °F
Dew Point 75 °F
Humidity 85%
Rainfall in
Snow Depth Not available.
7:08 AM 7:01 PM
Waning Crescent, 3% visible
METAR KCRE 290453Z AUTO 18009KT 10SM FEW022 27/23 A2997 RMK AO1 SLP148 T02670228 402890206
Pressure 29.97 in
Visibility 10.0 miles
Clouds Few 2200 ft
Heat Index 85 °F
Dew Point 75 °F
Humidity 85%
Rainfall in
Snow Depth Not available.
7:08 AM 7:01 PM
Waning Crescent, 3% visible
METAR KCRE 290453Z AUTO 18009KT 10SM FEW022 27/23 A2997 RMK AO1 SLP148 T02670228 402890206

10-Day Weather Forecast

Almanac

Astronomy

Sep. 29, 2016 Rise Set
Actual Time
Civil Twilight
Nautical Twilight
Astronomical Twilight
Moon
Length of Visible Light
Length of Day
Tomorrow will be .
, % of the Moon is Illuminated

Today's Extremes

State Highs State Lows

Community

WunderPhotos

Upload Photos

1,942,446 photos uploaded!

WunderBlog® & News

Nearby

Air Quality

  Air Quality AQ Index Pollutant
Not available.

Snow Depth

Station Depth Elevation

Earthquake Activity

City Distance Mag. Time & Date
Minimum magnitude displayed is 2.5.

Coastal Water Temperatures

Place Temperature

Stations

Nearby Weather Stations

Station Location Temp. Windchill Dew Point Humidity Wind Precip. Elev Updated Type
                   

Watches & Warnings

There are currently no watches in effect.